createdAt,value
2018-12-04T00:02:07.491Z,9.30
2018-12-04T00:04:36.299Z,9.29
2018-12-04T00:07:05.757Z,9.26
2018-12-04T00:09:34.515Z,9.25
2018-12-04T00:12:03.319Z,9.21
2018-12-04T00:14:32.134Z,9.19
2018-12-04T00:17:00.944Z,9.15
2018-12-04T00:19:29.708Z,9.13
2018-12-04T00:22:04.735Z,9.14
2018-12-04T00:24:33.551Z,9.15
2018-12-04T00:27:02.287Z,9.12
2018-12-04T00:29:31.198Z,9.11
2018-12-04T00:31:59.934Z,9.10
2018-12-04T00:34:28.659Z,9.07
2018-12-04T00:36:57.484Z,9.07
2018-12-04T00:39:26.214Z,9.08
2018-12-04T00:44:54.555Z,9.10
2018-12-04T00:47:28.902Z,9.13
2018-12-04T00:49:57.627Z,9.11
2018-12-04T00:52:26.451Z,9.13
2018-12-04T00:54:55.247Z,9.13
2018-12-04T00:57:24.061Z,9.11
2018-12-04T00:59:52.856Z,9.15
2018-12-04T01:02:21.768Z,9.17
2018-12-04T01:04:50.504Z,9.19
2018-12-04T01:07:19.663Z,9.23
2018-12-04T01:09:48.707Z,9.23
2018-12-04T01:12:17.578Z,9.24
2018-12-04T01:14:46.476Z,9.28
2018-12-04T01:17:15.250Z,9.31
2018-12-04T01:19:44.018Z,9.30
2018-12-04T01:22:12.789Z,9.28
2018-12-04T01:24:41.948Z,9.25
2018-12-04T01:27:10.743Z,9.26
2018-12-04T01:29:39.468Z,9.25
2018-12-04T01:32:09.415Z,9.25
2018-12-04T01:34:38.130Z,9.28
2018-12-04T01:37:06.934Z,9.25
2018-12-04T01:39:35.663Z,9.25
2018-12-04T01:42:05.204Z,9.24
2018-12-04T01:44:34.103Z,9.27
2018-12-04T01:47:02.892Z,9.32
2018-12-04T01:49:31.918Z,9.31
2018-12-04T01:52:00.712Z,9.29
2018-12-04T01:54:29.593Z,9.27
2018-12-04T01:56:58.407Z,9.23
2018-12-04T01:59:27.154Z,9.22
2018-12-04T02:01:56.023Z,9.22
2018-12-04T02:04:24.743Z,9.22
2018-12-04T02:06:53.492Z,9.20
2018-12-04T02:09:22.206Z,9.21
2018-12-04T02:11:50.983Z,9.19
2018-12-04T02:14:19.705Z,9.16
2018-12-04T02:16:48.640Z,9.11
2018-12-04T02:19:17.485Z,9.12
2018-12-04T02:21:46.254Z,9.12
2018-12-04T02:24:15.026Z,9.11
2018-12-04T02:26:43.980Z,9.12
2018-12-04T02:29:12.874Z,9.11
2018-12-04T02:31:41.646Z,9.11
2018-12-04T02:34:10.427Z,9.12
2018-12-04T02:36:39.289Z,9.11
2018-12-04T02:39:08.712Z,9.10
2018-12-04T02:41:37.559Z,9.07
2018-12-04T02:44:06.441Z,9.05
2018-12-04T02:46:35.260Z,9.02
2018-12-04T02:49:04.648Z,8.98
2018-12-04T02:51:34.787Z,8.91
2018-12-04T02:54:03.588Z,8.89
2018-12-04T02:56:32.468Z,8.87
2018-12-04T02:59:01.549Z,8.83
2018-12-04T03:01:30.733Z,8.80
2018-12-04T03:03:59.592Z,8.77
2018-12-04T03:06:28.643Z,8.74
2018-12-04T03:08:57.363Z,8.71
2018-12-04T03:11:26.179Z,8.68
2018-12-04T03:13:55.022Z,8.65
2018-12-04T03:16:23.751Z,8.58
2018-12-04T03:18:52.492Z,8.53
2018-12-04T03:21:21.234Z,8.49
2018-12-04T03:23:50.072Z,8.43
2018-12-04T03:26:18.858Z,8.38
2018-12-04T03:28:47.679Z,8.34
2018-12-04T03:31:16.444Z,8.31
2018-12-04T03:33:45.227Z,8.28
2018-12-04T03:36:14.247Z,8.26
2018-12-04T03:38:43.288Z,8.22
2018-12-04T03:41:12.331Z,8.17
2018-12-04T03:43:41.255Z,8.12
2018-12-04T03:46:10.004Z,8.06
2018-12-04T03:48:38.779Z,7.98
2018-12-04T03:51:07.586Z,7.95
2018-12-04T03:53:36.449Z,7.93
2018-12-04T03:56:05.611Z,7.89
2018-12-04T03:58:34.343Z,7.84
2018-12-04T04:01:03.328Z,7.78
2018-12-04T04:03:33.075Z,7.76
2018-12-04T04:06:02.024Z,7.74
2018-12-04T04:08:30.924Z,7.70
2018-12-04T04:10:59.702Z,7.62
2018-12-04T04:13:28.440Z,7.56
2018-12-04T04:15:57.315Z,7.49
2018-12-04T04:18:26.208Z,7.45
2018-12-04T04:20:54.935Z,7.44
2018-12-04T04:23:23.680Z,7.44
2018-12-04T04:25:52.492Z,7.45
2018-12-04T04:28:21.425Z,7.44
2018-12-04T04:30:50.288Z,7.38
2018-12-04T04:33:19.083Z,7.35
2018-12-04T04:35:49.781Z,7.35
2018-12-04T04:38:18.560Z,7.31
2018-12-04T04:40:47.347Z,7.25
2018-12-04T04:43:16.089Z,7.24
2018-12-04T04:45:44.996Z,7.21
2018-12-04T04:48:13.707Z,7.12
2018-12-04T04:50:42.495Z,7.11
2018-12-04T04:53:11.217Z,7.11
2018-12-04T04:55:40.058Z,7.10
2018-12-04T04:58:09.938Z,7.08
2018-12-04T05:00:39.040Z,7.05
2018-12-04T05:03:08.792Z,7.01
2018-12-04T05:05:40.019Z,6.98
2018-12-04T05:08:08.864Z,6.94
2018-12-04T05:10:37.681Z,6.95
2018-12-04T05:13:06.544Z,6.92
2018-12-04T05:15:35.469Z,6.88
2018-12-04T05:18:05.114Z,6.91
2018-12-04T05:20:33.927Z,6.92
2018-12-04T05:23:02.748Z,6.93
2018-12-04T05:25:31.708Z,6.93
2018-12-04T05:28:00.581Z,6.92
2018-12-04T05:30:29.329Z,6.93
2018-12-04T05:32:58.225Z,6.92
2018-12-04T05:35:26.948Z,6.90
2018-12-04T05:37:55.663Z,6.92
2018-12-04T05:40:24.470Z,6.91
2018-12-04T05:42:53.195Z,6.86
2018-12-04T05:45:21.942Z,6.83
2018-12-04T05:47:50.659Z,6.80
2018-12-04T05:50:19.718Z,6.78
2018-12-04T05:52:58.525Z,6.77
2018-12-04T05:55:27.513Z,6.78
2018-12-04T05:57:56.240Z,6.74
2018-12-04T06:00:25.307Z,6.76
2018-12-04T06:02:54.053Z,6.71
2018-12-04T06:05:22.840Z,6.67
2018-12-04T06:07:51.947Z,6.61
2018-12-04T06:10:20.659Z,6.55
2018-12-04T06:12:49.437Z,6.48
2018-12-04T06:15:18.232Z,6.48
2018-12-04T06:17:46.959Z,6.48
2018-12-04T06:20:15.767Z,6.44
2018-12-04T06:22:44.631Z,6.48
2018-12-04T06:25:13.575Z,6.56
2018-12-04T06:27:42.497Z,6.59
2018-12-04T06:30:11.363Z,6.58
2018-12-04T06:32:40.163Z,6.50
2018-12-04T06:35:09.060Z,6.47
2018-12-04T06:37:37.775Z,6.44
2018-12-04T06:40:06.667Z,6.43
2018-12-04T06:42:35.556Z,6.41
2018-12-04T06:45:05.258Z,6.39
2018-12-04T06:47:40.728Z,6.40
2018-12-04T06:50:10.911Z,6.40
2018-12-04T06:52:39.760Z,6.39
2018-12-04T06:55:09.103Z,6.38
2018-12-04T06:57:37.827Z,6.39
2018-12-04T07:00:07.846Z,6.32
2018-12-04T07:02:37.631Z,6.30
2018-12-04T07:05:06.777Z,6.26
2018-12-04T07:07:35.684Z,6.21
2018-12-04T07:10:11.787Z,6.18
2018-12-04T07:12:40.610Z,6.16
2018-12-04T07:15:09.327Z,6.14
2018-12-04T07:17:38.158Z,6.11
2018-12-04T07:20:08.274Z,6.08
2018-12-04T07:22:37.095Z,6.02
2018-12-04T07:25:06.803Z,5.96
2018-12-04T07:27:35.520Z,5.94
2018-12-04T07:30:07.135Z,5.93
2018-12-04T07:32:38.726Z,5.90
2018-12-04T07:35:08.207Z,5.86
2018-12-04T07:37:37.030Z,5.83
2018-12-04T07:40:06.967Z,5.81
2018-12-04T07:42:35.694Z,5.77
2018-12-04T07:45:05.691Z,5.77
2018-12-04T07:47:34.474Z,5.75
2018-12-04T07:50:03.388Z,5.77
2018-12-04T07:52:32.107Z,5.78
2018-12-04T07:55:00.834Z,5.82
2018-12-04T07:57:29.636Z,5.81
2018-12-04T07:59:58.420Z,5.80
2018-12-04T08:02:27.159Z,5.80
2018-12-04T08:04:55.891Z,5.80
2018-12-04T08:07:24.629Z,5.81
2018-12-04T08:09:53.349Z,5.83
2018-12-04T08:12:22.159Z,5.82
2018-12-04T08:14:51.048Z,5.84
2018-12-04T08:17:19.788Z,5.83
2018-12-04T08:19:48.552Z,5.83
2018-12-04T08:22:17.363Z,5.86
2018-12-04T08:24:46.223Z,5.88
2018-12-04T08:27:20.075Z,5.89
2018-12-04T08:29:48.810Z,5.92
2018-12-04T08:32:17.691Z,5.93
2018-12-04T08:34:46.500Z,5.95
2018-12-04T08:37:15.362Z,6.00
2018-12-04T08:39:44.395Z,6.01
2018-12-04T08:42:13.291Z,6.02
2018-12-04T08:44:42.025Z,6.05
2018-12-04T08:47:10.875Z,6.08
2018-12-04T08:49:40.169Z,6.08
2018-12-04T08:52:09.022Z,6.12
2018-12-04T08:54:37.882Z,6.16
2018-12-04T08:57:06.740Z,6.20
2018-12-04T08:59:35.544Z,6.23
2018-12-04T09:02:05.708Z,6.29
2018-12-04T09:04:34.447Z,6.34
2018-12-04T09:07:03.370Z,6.40
2018-12-04T09:09:32.143Z,6.45
2018-12-04T09:12:01.075Z,6.49
2018-12-04T09:14:30.158Z,6.57
2018-12-04T09:16:59.003Z,6.62
2018-12-04T09:19:27.762Z,6.69
2018-12-04T09:21:56.625Z,6.80
2018-12-04T09:24:30.549Z,6.85
2018-12-04T09:26:56.201Z,6.90
2018-12-04T09:29:24.986Z,6.95
2018-12-04T09:31:53.956Z,6.97
2018-12-04T09:34:22.814Z,7.00
2018-12-04T09:36:51.535Z,7.02
2018-12-04T09:39:20.276Z,7.05
2018-12-04T09:41:49.277Z,7.09
2018-12-04T09:44:18.061Z,7.12
2018-12-04T09:46:46.782Z,7.15
2018-12-04T09:49:15.605Z,7.18
2018-12-04T09:51:45.461Z,7.21
2018-12-04T09:54:14.356Z,7.22
2018-12-04T09:56:43.423Z,7.29
2018-12-04T09:59:12.246Z,7.32
2018-12-04T10:01:40.979Z,7.37
2018-12-04T10:04:09.767Z,7.42
2018-12-04T10:06:38.583Z,7.46
2018-12-04T10:09:09.045Z,7.50
2018-12-04T10:11:38.238Z,7.55
2018-12-04T10:14:07.227Z,7.58
2018-12-04T10:16:36.203Z,7.64
2018-12-04T10:19:05.014Z,7.67
2018-12-04T10:21:33.747Z,7.73
2018-12-04T10:24:02.695Z,7.77
2018-12-04T10:26:31.521Z,7.82
2018-12-04T10:29:00.372Z,7.88
2018-12-04T10:31:29.246Z,7.92
2018-12-04T10:33:58.111Z,7.93
2018-12-04T10:36:28.319Z,7.99
2018-12-04T10:38:57.142Z,8.03
2018-12-04T10:41:25.883Z,8.04
2018-12-04T10:43:54.640Z,8.09
2018-12-04T10:46:23.487Z,8.08
2018-12-04T10:48:52.570Z,8.12
2018-12-04T10:51:21.492Z,8.16
2018-12-04T10:53:50.284Z,8.19
2018-12-04T10:56:19.155Z,8.25
2018-12-04T10:58:48.149Z,8.28
2018-12-04T11:01:25.556Z,8.31
2018-12-04T11:03:54.579Z,8.31
2018-12-04T11:06:23.440Z,8.33
2018-12-04T11:08:52.303Z,8.37
2018-12-04T11:11:21.112Z,8.38
2018-12-04T11:13:49.906Z,8.41
2018-12-04T11:16:18.847Z,8.42
2018-12-04T11:18:47.726Z,8.45
2018-12-04T11:21:16.686Z,8.47
2018-12-04T11:23:45.430Z,8.51
2018-12-04T11:26:14.257Z,8.55
2018-12-04T11:28:43.083Z,8.61
2018-12-04T11:31:12.137Z,8.63
2018-12-04T11:33:41.255Z,8.65
2018-12-04T11:36:10.085Z,8.67
2018-12-04T11:38:38.829Z,8.70
2018-12-04T11:41:07.700Z,8.71
2018-12-04T11:43:36.539Z,8.73
2018-12-04T11:46:05.381Z,8.76
2018-12-04T11:48:34.135Z,8.77
2018-12-04T11:51:02.878Z,8.80
2018-12-04T11:53:31.807Z,8.80
2018-12-04T11:56:00.565Z,8.82
2018-12-04T11:58:29.341Z,8.86
2018-12-04T12:00:58.449Z,8.89
2018-12-04T12:03:27.168Z,8.91
2018-12-04T12:05:55.964Z,8.91
2018-12-04T12:08:26.699Z,8.88
2018-12-04T12:10:55.476Z,8.82
2018-12-04T12:13:24.360Z,8.87
2018-12-04T12:15:53.100Z,8.92
2018-12-04T12:18:21.807Z,8.97
2018-12-04T12:20:50.611Z,8.99
2018-12-04T12:23:19.424Z,9.00
2018-12-04T12:25:48.286Z,8.98
2018-12-04T12:28:17.716Z,9.00
2018-12-04T12:30:46.456Z,9.04
2018-12-04T12:33:15.187Z,9.07
2018-12-04T12:35:43.934Z,9.07
2018-12-04T12:38:13.255Z,9.10
2018-12-04T12:40:42.066Z,9.08
2018-12-04T12:43:10.956Z,9.08
2018-12-04T12:45:39.767Z,9.08
2018-12-04T12:48:08.735Z,9.10
2018-12-04T12:50:37.485Z,9.11
2018-12-04T12:53:06.211Z,9.12
2018-12-04T12:55:35.016Z,9.11
2018-12-04T12:58:04.723Z,9.10
2018-12-04T13:00:33.591Z,9.11
2018-12-04T13:03:02.358Z,9.11
2018-12-04T13:05:31.600Z,9.11
2018-12-04T13:08:01.520Z,9.10
2018-12-04T13:10:30.341Z,9.10
2018-12-04T13:12:59.165Z,9.09
2018-12-04T13:15:28.028Z,9.04
2018-12-04T13:17:56.846Z,9.05
2018-12-04T13:20:25.740Z,9.04
2018-12-04T13:22:54.535Z,9.08
2018-12-04T13:25:23.392Z,9.11
2018-12-04T13:27:52.191Z,9.13
2018-12-04T13:30:21.063Z,9.14
2018-12-04T13:32:50.053Z,9.13
2018-12-04T13:35:18.922Z,9.14
2018-12-04T13:37:47.794Z,9.17
2018-12-04T13:40:16.650Z,9.17
2018-12-04T13:42:45.720Z,9.13
2018-12-04T13:45:14.627Z,9.13
2018-12-04T13:47:43.708Z,9.13
2018-12-04T13:50:12.927Z,9.14
2018-12-04T13:52:42.076Z,9.10
2018-12-04T13:55:10.956Z,9.11
2018-12-04T13:57:39.782Z,9.12
2018-12-04T14:00:09.358Z,9.12
2018-12-04T14:02:38.212Z,9.11
2018-12-04T14:05:08.972Z,9.10
2018-12-04T14:07:38.016Z,9.07
2018-12-04T14:10:08.883Z,9.05
2018-12-04T14:12:37.808Z,9.04
2018-12-04T14:15:07.390Z,9.05
2018-12-04T14:17:36.227Z,9.04
2018-12-04T14:20:06.771Z,9.04
2018-12-04T14:22:35.863Z,8.99
2018-12-04T14:25:05.164Z,8.95
2018-12-04T14:27:34.031Z,8.97
2018-12-04T14:30:02.961Z,8.96
2018-12-04T14:32:32.299Z,8.94
2018-12-04T14:35:01.172Z,8.91
2018-12-04T14:37:31.639Z,8.90
2018-12-04T14:40:00.411Z,8.90
2018-12-04T14:42:29.370Z,8.88
2018-12-04T14:44:58.335Z,8.86
2018-12-04T14:47:27.149Z,8.82
2018-12-04T14:49:55.970Z,8.79
2018-12-04T14:52:24.955Z,8.75
2018-12-04T14:55:09.395Z,8.72
2018-12-04T14:57:38.513Z,8.69
2018-12-04T15:00:10.312Z,8.65
2018-12-04T15:02:40.886Z,8.67
2018-12-04T15:05:10.055Z,8.69
2018-12-04T15:07:38.945Z,8.66
2018-12-04T15:10:09.732Z,8.61
2018-12-04T15:12:38.687Z,8.54
2018-12-04T15:15:07.928Z,8.47
2018-12-04T15:17:36.910Z,8.38
2018-12-04T15:20:07.035Z,8.30
2018-12-04T15:22:35.983Z,8.22
2018-12-04T15:25:05.379Z,8.17
2018-12-04T15:27:34.200Z,8.12
2018-12-04T15:30:03.575Z,8.05
2018-12-04T15:32:32.433Z,8.00
2018-12-04T15:35:01.657Z,7.91
2018-12-04T15:37:31.503Z,7.81
2018-12-04T15:40:00.431Z,7.72
2018-12-04T15:42:29.183Z,7.65
2018-12-04T15:44:57.960Z,7.55
2018-12-04T15:47:26.747Z,7.47
2018-12-04T15:49:55.599Z,7.36
2018-12-04T15:52:24.739Z,7.27
2018-12-04T15:54:53.537Z,7.19
2018-12-04T15:57:23.307Z,7.11
2018-12-04T15:59:52.463Z,7.07
2018-12-04T16:02:43.154Z,7.03
2018-12-04T16:05:12.358Z,6.95
2018-12-04T16:07:41.169Z,6.89
2018-12-04T16:10:12.704Z,6.81
2018-12-04T16:12:41.444Z,6.75
2018-12-04T16:15:10.625Z,6.68
2018-12-04T16:17:45.964Z,6.62
2018-12-04T16:20:15.047Z,6.55
2018-12-04T16:22:44.807Z,6.48
2018-12-04T16:25:13.632Z,6.43
2018-12-04T16:27:42.392Z,6.40
2018-12-04T16:30:11.295Z,6.35
2018-12-04T16:32:40.331Z,6.31
2018-12-04T16:35:09.362Z,6.22
2018-12-04T16:37:38.160Z,6.13
2018-12-04T16:40:07.899Z,6.08
2018-12-04T16:42:36.646Z,6.06
2018-12-04T16:45:05.771Z,6.03
2018-12-04T16:47:34.625Z,5.97
2018-12-04T16:50:03.652Z,5.91
2018-12-04T16:52:32.375Z,5.88
2018-12-04T16:55:01.390Z,5.82
2018-12-04T16:57:30.243Z,5.75
2018-12-04T16:59:59.045Z,5.73
2018-12-04T17:02:28.271Z,5.68
2018-12-04T17:04:57.048Z,5.64
2018-12-04T17:07:25.840Z,5.61
2018-12-04T17:09:54.620Z,5.53
2018-12-04T17:12:23.415Z,5.50
2018-12-04T17:14:52.403Z,5.46
2018-12-04T17:17:21.215Z,5.45
2018-12-04T17:19:50.019Z,5.43
2018-12-04T17:22:18.899Z,5.36
2018-12-04T17:24:47.664Z,5.29
2018-12-04T17:27:16.538Z,5.26
2018-12-04T17:29:45.280Z,5.21
2018-12-04T17:32:14.100Z,5.18
2018-12-04T17:34:43.181Z,5.14
2018-12-04T17:37:12.173Z,5.15
2018-12-04T17:39:40.898Z,5.22
2018-12-04T17:42:09.731Z,5.24
2018-12-04T17:44:40.398Z,5.21
2018-12-04T17:47:09.369Z,5.21
2018-12-04T17:49:38.116Z,5.26
2018-12-04T17:52:13.957Z,5.28
2018-12-04T17:54:42.680Z,5.24
2018-12-04T17:57:11.744Z,5.19
2018-12-04T17:59:42.467Z,5.17
2018-12-04T18:02:13.474Z,5.14
2018-12-04T18:04:42.330Z,5.10
2018-12-04T18:07:13.087Z,5.06
2018-12-04T18:09:42.967Z,5.01
2018-12-04T18:12:13.779Z,4.96
2018-12-04T18:14:44.517Z,4.91
2018-12-04T18:17:13.568Z,4.90
2018-12-04T18:19:42.337Z,4.87
2018-12-04T18:22:11.174Z,4.83
2018-12-04T18:24:40.172Z,4.77
2018-12-04T18:27:09.154Z,4.70
2018-12-04T18:29:38.155Z,4.66
2018-12-04T18:32:07.264Z,4.61
2018-12-04T18:34:36.022Z,4.56
2018-12-04T18:37:04.835Z,4.52
2018-12-04T18:39:33.811Z,4.48
2018-12-04T18:42:02.892Z,4.46
2018-12-04T18:44:33.735Z,4.45
2018-12-04T18:47:02.956Z,4.42
2018-12-04T18:49:32.027Z,4.42
2018-12-04T18:52:00.935Z,4.40
2018-12-04T18:54:29.798Z,4.39
2018-12-04T18:56:58.611Z,4.35
2018-12-04T18:59:28.295Z,4.31
2018-12-04T19:01:57.198Z,4.25
2018-12-04T19:04:26.276Z,4.21
2018-12-04T19:06:57.839Z,4.19
2018-12-04T19:09:26.705Z,4.17
2018-12-04T19:11:55.645Z,4.16
2018-12-04T19:14:25.019Z,4.16
2018-12-04T19:16:54.500Z,4.14
2018-12-04T19:19:24.531Z,4.09
2018-12-04T19:21:53.922Z,4.03
2018-12-04T19:24:23.398Z,3.99
2018-12-04T19:26:52.125Z,3.94
2018-12-04T19:29:21.430Z,3.91
2018-12-04T19:31:50.542Z,3.91
2018-12-04T19:34:19.340Z,3.91
2018-12-04T19:36:48.335Z,3.90
2018-12-04T19:39:17.327Z,3.89
2018-12-04T19:41:46.312Z,3.88
2018-12-04T19:44:15.311Z,3.87
2018-12-04T19:46:44.375Z,3.85
2018-12-04T19:49:13.112Z,3.83
2018-12-04T19:51:41.953Z,3.81
2018-12-04T19:54:11.039Z,3.78
2018-12-04T19:56:40.413Z,3.74
2018-12-04T19:59:09.724Z,3.68
2018-12-04T20:01:38.635Z,3.67
2018-12-04T20:04:07.473Z,3.66
2018-12-04T20:06:36.212Z,3.63
2018-12-04T20:09:07.275Z,3.64
2018-12-04T20:11:38.278Z,3.61
2018-12-04T20:14:07.051Z,3.60
2018-12-04T20:16:35.772Z,3.60
2018-12-04T20:19:05.119Z,3.58
2018-12-04T20:21:34.324Z,3.56
2018-12-04T20:24:03.180Z,3.56
2018-12-04T20:26:31.944Z,3.55
2018-12-04T20:29:00.916Z,3.52
2018-12-04T20:31:29.679Z,3.52
2018-12-04T20:33:58.409Z,3.52
2018-12-04T20:36:27.123Z,3.51
2018-12-04T20:38:55.859Z,3.50
2018-12-04T20:41:24.672Z,3.48
2018-12-04T20:43:53.577Z,3.43
2018-12-04T20:46:22.680Z,3.38
2018-12-04T20:48:51.502Z,3.34
2018-12-04T20:51:20.245Z,3.30
2018-12-04T20:53:49.040Z,3.27
2018-12-04T20:56:17.840Z,3.24
2018-12-04T20:58:46.647Z,3.24
2018-12-04T21:01:15.743Z,3.26
2018-12-04T21:03:45.952Z,3.31
2018-12-04T21:06:14.715Z,3.37
2018-12-04T21:08:43.559Z,3.40
2018-12-04T21:11:12.509Z,3.44
2018-12-04T21:13:41.483Z,3.48
2018-12-04T21:16:10.207Z,3.52
2018-12-04T21:18:38.939Z,3.55
2018-12-04T21:21:08.236Z,3.58
2018-12-04T21:23:37.151Z,3.60
2018-12-04T21:26:06.027Z,3.63
2018-12-04T21:28:34.752Z,3.64
2018-12-04T21:31:10.060Z,3.61
2018-12-04T21:33:44.142Z,3.59
2018-12-04T21:36:18.512Z,3.60
2018-12-04T21:38:53.406Z,3.61
2018-12-04T21:44:20.441Z,3.54
2018-12-04T21:46:54.761Z,3.50
2018-12-04T21:49:24.502Z,3.45
2018-12-04T21:51:53.523Z,3.47
2018-12-04T21:54:22.491Z,3.45
2018-12-04T21:56:51.551Z,3.43
2018-12-04T21:59:20.454Z,3.41
2018-12-04T22:01:49.543Z,3.39
2018-12-04T22:04:18.383Z,3.32
2018-12-04T22:06:47.199Z,3.28
2018-12-04T22:09:15.944Z,3.26
2018-12-04T22:11:44.803Z,3.26
2018-12-04T22:14:13.668Z,3.26
2018-12-04T22:16:42.466Z,3.24
2018-12-04T22:19:11.271Z,3.23
2018-12-04T22:21:40.171Z,3.20
2018-12-04T22:24:09.260Z,3.17
2018-12-04T22:26:38.071Z,3.17
2018-12-04T22:29:06.856Z,3.17
2018-12-04T22:31:35.956Z,3.17
2018-12-04T22:34:05.307Z,3.18
2018-12-04T22:36:34.059Z,3.19
2018-12-04T22:39:04.974Z,3.19
2018-12-04T22:41:35.715Z,3.17
2018-12-04T22:44:05.141Z,3.17
2018-12-04T22:46:33.879Z,3.17
2018-12-04T22:49:03.613Z,3.18
2018-12-04T22:51:32.438Z,3.18
2018-12-04T22:54:01.378Z,3.16
2018-12-04T22:56:30.154Z,3.12
2018-12-04T22:58:59.064Z,3.09
2018-12-04T23:01:38.435Z,3.06
2018-12-04T23:04:07.555Z,3.01
2018-12-04T23:06:36.921Z,2.96
2018-12-04T23:09:08.979Z,2.91
2018-12-04T23:11:39.883Z,2.85
2018-12-04T23:14:08.811Z,2.80
2018-12-04T23:16:39.116Z,2.78
2018-12-04T23:19:07.859Z,2.79
2018-12-04T23:21:36.657Z,2.81
2018-12-04T23:24:05.847Z,2.82
2018-12-04T23:26:34.876Z,2.84
2018-12-04T23:29:04.007Z,2.85
2018-12-04T23:31:32.747Z,2.86
2018-12-04T23:34:01.466Z,2.88
2018-12-04T23:36:30.203Z,2.88
2018-12-04T23:38:59.016Z,2.87
2018-12-04T23:41:27.831Z,2.86
2018-12-04T23:43:56.630Z,2.85
2018-12-04T23:46:25.641Z,2.83
2018-12-04T23:48:54.525Z,2.83
2018-12-04T23:51:23.299Z,2.81
2018-12-04T23:53:52.187Z,2.82
2018-12-04T23:56:21.227Z,2.79
2018-12-04T23:58:50.294Z,2.77
